sensor_id;sensor_type;location;lat;lon;timestamp;P1;durP1;ratioP1;P2;durP2;ratioP2
58302;SDS011;44109;52.398;7.024;2023-11-22T00:02:21;9.13;;;6.57;;
58302;SDS011;44109;52.398;7.024;2023-11-22T00:04:48;12.10;;;7.30;;
58302;SDS011;44109;52.398;7.024;2023-11-22T00:07:16;10.23;;;7.15;;
58302;SDS011;44109;52.398;7.024;2023-11-22T00:09:43;9.98;;;7.25;;
58302;SDS011;44109;52.398;7.024;2023-11-22T00:12:12;9.02;;;6.20;;
58302;SDS011;44109;52.398;7.024;2023-11-22T00:14:43;11.68;;;7.88;;
58302;SDS011;44109;52.398;7.024;2023-11-22T00:17:10;10.13;;;6.90;;
58302;SDS011;44109;52.398;7.024;2023-11-22T00:19:39;14.07;;;8.57;;
58302;SDS011;44109;52.398;7.024;2023-11-22T00:22:07;10.65;;;7.45;;
58302;SDS011;44109;52.398;7.024;2023-11-22T00:24:38;10.68;;;7.30;;
58302;SDS011;44109;52.398;7.024;2023-11-22T00:27:06;11.00;;;7.00;;
58302;SDS011;44109;52.398;7.024;2023-11-22T00:29:34;10.90;;;6.80;;
58302;SDS011;44109;52.398;7.024;2023-11-22T00:32:01;8.82;;;5.90;;
58302;SDS011;44109;52.398;7.024;2023-11-22T00:34:30;9.93;;;6.50;;
58302;SDS011;44109;52.398;7.024;2023-11-22T00:36:59;14.57;;;7.15;;
58302;SDS011;44109;52.398;7.024;2023-11-22T00:39:26;11.23;;;6.80;;
58302;SDS011;44109;52.398;7.024;2023-11-22T00:41:53;10.15;;;6.78;;
58302;SDS011;44109;52.398;7.024;2023-11-22T00:44:21;10.93;;;6.85;;
58302;SDS011;44109;52.398;7.024;2023-11-22T00:46:49;10.88;;;7.05;;
58302;SDS011;44109;52.398;7.024;2023-11-22T00:49:16;11.45;;;6.80;;
58302;SDS011;44109;52.398;7.024;2023-11-22T00:51:44;9.25;;;5.88;;
58302;SDS011;44109;52.398;7.024;2023-11-22T00:54:12;9.48;;;6.00;;
58302;SDS011;44109;52.398;7.024;2023-11-22T00:56:40;8.05;;;5.57;;
58302;SDS011;44109;52.398;7.024;2023-11-22T00:59:08;12.15;;;7.07;;
58302;SDS011;44109;52.398;7.024;2023-11-22T01:01:35;9.73;;;7.20;;
58302;SDS011;44109;52.398;7.024;2023-11-22T01:04:03;11.13;;;7.18;;
58302;SDS011;44109;52.398;7.024;2023-11-22T01:06:32;11.05;;;7.05;;
58302;SDS011;44109;52.398;7.024;2023-11-22T01:09:00;9.65;;;6.60;;
58302;SDS011;44109;52.398;7.024;2023-11-22T01:11:29;8.85;;;6.32;;
58302;SDS011;44109;52.398;7.024;2023-11-22T01:13:57;10.38;;;6.75;;
58302;SDS011;44109;52.398;7.024;2023-11-22T01:16:24;11.75;;;7.18;;
58302;SDS011;44109;52.398;7.024;2023-11-22T01:18:51;10.52;;;6.93;;
58302;SDS011;44109;52.398;7.024;2023-11-22T01:21:19;8.68;;;6.43;;
58302;SDS011;44109;52.398;7.024;2023-11-22T01:23:46;10.27;;;6.45;;
58302;SDS011;44109;52.398;7.024;2023-11-22T01:26:14;9.52;;;6.60;;
58302;SDS011;44109;52.398;7.024;2023-11-22T01:28:44;10.75;;;6.65;;
58302;SDS011;44109;52.398;7.024;2023-11-22T01:31:11;12.20;;;6.38;;
58302;SDS011;44109;52.398;7.024;2023-11-22T01:33:39;9.05;;;6.80;;
58302;SDS011;44109;52.398;7.024;2023-11-22T01:36:07;11.02;;;7.28;;
58302;SDS011;44109;52.398;7.024;2023-11-22T01:38:35;10.95;;;7.28;;
58302;SDS011;44109;52.398;7.024;2023-11-22T01:41:05;10.57;;;7.18;;
58302;SDS011;44109;52.398;7.024;2023-11-22T01:43:32;11.60;;;8.05;;
58302;SDS011;44109;52.398;7.024;2023-11-22T01:46:01;8.75;;;6.00;;
58302;SDS011;44109;52.398;7.024;2023-11-22T01:48:29;10.57;;;6.85;;
58302;SDS011;44109;52.398;7.024;2023-11-22T01:50:58;10.75;;;6.38;;
58302;SDS011;44109;52.398;7.024;2023-11-22T01:53:25;10.45;;;6.13;;
58302;SDS011;44109;52.398;7.024;2023-11-22T01:55:53;11.18;;;6.97;;
58302;SDS011;44109;52.398;7.024;2023-11-22T01:58:22;11.48;;;7.13;;
58302;SDS011;44109;52.398;7.024;2023-11-22T02:00:50;11.43;;;7.32;;
58302;SDS011;44109;52.398;7.024;2023-11-22T02:03:19;11.35;;;6.40;;
58302;SDS011;44109;52.398;7.024;2023-11-22T02:05:47;9.68;;;5.78;;
58302;SDS011;44109;52.398;7.024;2023-11-22T02:08:16;10.30;;;6.50;;
58302;SDS011;44109;52.398;7.024;2023-11-22T02:10:44;9.82;;;6.10;;
58302;SDS011;44109;52.398;7.024;2023-11-22T02:13:15;10.45;;;6.15;;
58302;SDS011;44109;52.398;7.024;2023-11-22T02:15:42;9.55;;;6.22;;
58302;SDS011;44109;52.398;7.024;2023-11-22T02:18:09;10.38;;;6.35;;
58302;SDS011;44109;52.398;7.024;2023-11-22T02:20:38;10.88;;;6.38;;
58302;SDS011;44109;52.398;7.024;2023-11-22T02:23:08;9.68;;;6.00;;
58302;SDS011;44109;52.398;7.024;2023-11-22T02:25:37;10.07;;;6.43;;
58302;SDS011;44109;52.398;7.024;2023-11-22T02:28:04;9.15;;;6.40;;
58302;SDS011;44109;52.398;7.024;2023-11-22T02:30:34;9.40;;;5.57;;
58302;SDS011;44109;52.398;7.024;2023-11-22T02:33:01;8.70;;;6.07;;
58302;SDS011;44109;52.398;7.024;2023-11-22T02:35:30;10.32;;;6.80;;
58302;SDS011;44109;52.398;7.024;2023-11-22T02:37:58;11.63;;;6.38;;
58302;SDS011;44109;52.398;7.024;2023-11-22T02:40:27;10.80;;;6.70;;
58302;SDS011;44109;52.398;7.024;2023-11-22T02:42:55;9.88;;;6.30;;
58302;SDS011;44109;52.398;7.024;2023-11-22T02:45:25;9.70;;;6.70;;
58302;SDS011;44109;52.398;7.024;2023-11-22T02:47:55;10.88;;;6.68;;
58302;SDS011;44109;52.398;7.024;2023-11-22T02:50:23;10.32;;;5.90;;
58302;SDS011;44109;52.398;7.024;2023-11-22T02:52:51;10.23;;;6.32;;
58302;SDS011;44109;52.398;7.024;2023-11-22T02:55:18;11.35;;;7.18;;
58302;SDS011;44109;52.398;7.024;2023-11-22T02:57:47;9.80;;;6.38;;
58302;SDS011;44109;52.398;7.024;2023-11-22T03:00:15;10.90;;;6.95;;
58302;SDS011;44109;52.398;7.024;2023-11-22T03:02:45;13.88;;;6.75;;
58302;SDS011;44109;52.398;7.024;2023-11-22T03:05:13;21.52;;;7.63;;
58302;SDS011;44109;52.398;7.024;2023-11-22T03:07:41;18.38;;;8.18;;
58302;SDS011;44109;52.398;7.024;2023-11-22T03:10:09;18.83;;;6.43;;
58302;SDS011;44109;52.398;7.024;2023-11-22T03:12:36;12.00;;;6.90;;
58302;SDS011;44109;52.398;7.024;2023-11-22T03:15:06;11.63;;;6.50;;
58302;SDS011;44109;52.398;7.024;2023-11-22T03:17:35;12.63;;;6.88;;
58302;SDS011;44109;52.398;7.024;2023-11-22T03:20:04;11.77;;;7.38;;
58302;SDS011;44109;52.398;7.024;2023-11-22T03:22:35;11.77;;;6.88;;
58302;SDS011;44109;52.398;7.024;2023-11-22T03:25:02;11.07;;;7.15;;
58302;SDS011;44109;52.398;7.024;2023-11-22T03:27:30;9.60;;;6.25;;
58302;SDS011;44109;52.398;7.024;2023-11-22T03:29:58;8.38;;;5.72;;
58302;SDS011;44109;52.398;7.024;2023-11-22T03:32:28;10.43;;;6.35;;
58302;SDS011;44109;52.398;7.024;2023-11-22T03:34:55;11.38;;;6.05;;
58302;SDS011;44109;52.398;7.024;2023-11-22T03:37:23;10.32;;;6.32;;
58302;SDS011;44109;52.398;7.024;2023-11-22T03:39:50;12.80;;;6.63;;
58302;SDS011;44109;52.398;7.024;2023-11-22T03:42:18;8.65;;;6.05;;
58302;SDS011;44109;52.398;7.024;2023-11-22T03:44:46;12.25;;;6.03;;
58302;SDS011;44109;52.398;7.024;2023-11-22T03:47:14;10.93;;;6.13;;
58302;SDS011;44109;52.398;7.024;2023-11-22T03:49:43;8.98;;;5.93;;
58302;SDS011;44109;52.398;7.024;2023-11-22T03:52:11;9.90;;;6.28;;
58302;SDS011;44109;52.398;7.024;2023-11-22T03:54:40;17.17;;;6.72;;
58302;SDS011;44109;52.398;7.024;2023-11-22T03:57:07;16.13;;;6.93;;
58302;SDS011;44109;52.398;7.024;2023-11-22T03:59:34;11.10;;;6.68;;
58302;SDS011;44109;52.398;7.024;2023-11-22T04:02:02;8.63;;;5.75;;
58302;SDS011;44109;52.398;7.024;2023-11-22T04:04:30;9.32;;;5.88;;
58302;SDS011;44109;52.398;7.024;2023-11-22T04:06:58;10.50;;;6.72;;
58302;SDS011;44109;52.398;7.024;2023-11-22T04:09:26;9.65;;;6.25;;
58302;SDS011;44109;52.398;7.024;2023-11-22T04:11:55;9.70;;;6.20;;
58302;SDS011;44109;52.398;7.024;2023-11-22T04:14:22;10.70;;;6.00;;
58302;SDS011;44109;52.398;7.024;2023-11-22T04:16:50;10.13;;;6.80;;
58302;SDS011;44109;52.398;7.024;2023-11-22T04:19:17;9.85;;;6.05;;
58302;SDS011;44109;52.398;7.024;2023-11-22T04:21:44;11.32;;;6.43;;
58302;SDS011;44109;52.398;7.024;2023-11-22T04:24:13;11.57;;;6.18;;
58302;SDS011;44109;52.398;7.024;2023-11-22T04:26:40;11.07;;;6.00;;
58302;SDS011;44109;52.398;7.024;2023-11-22T04:29:08;12.07;;;7.15;;
58302;SDS011;44109;52.398;7.024;2023-11-22T04:31:35;9.45;;;6.45;;
58302;SDS011;44109;52.398;7.024;2023-11-22T04:34:03;10.60;;;6.45;;
58302;SDS011;44109;52.398;7.024;2023-11-22T04:36:30;9.32;;;6.32;;
58302;SDS011;44109;52.398;7.024;2023-11-22T04:38:58;10.63;;;6.50;;
58302;SDS011;44109;52.398;7.024;2023-11-22T04:41:27;9.73;;;6.25;;
58302;SDS011;44109;52.398;7.024;2023-11-22T04:43:55;10.18;;;6.00;;
58302;SDS011;44109;52.398;7.024;2023-11-22T04:46:22;10.13;;;6.55;;
58302;SDS011;44109;52.398;7.024;2023-11-22T04:48:50;11.55;;;6.88;;
58302;SDS011;44109;52.398;7.024;2023-11-22T04:51:18;12.00;;;6.95;;
58302;SDS011;44109;52.398;7.024;2023-11-22T04:53:45;11.82;;;6.97;;
58302;SDS011;44109;52.398;7.024;2023-11-22T04:56:13;13.05;;;6.60;;
58302;SDS011;44109;52.398;7.024;2023-11-22T04:58:41;10.07;;;6.55;;
58302;SDS011;44109;52.398;7.024;2023-11-22T05:01:09;11.85;;;6.03;;
58302;SDS011;44109;52.398;7.024;2023-11-22T05:03:36;10.77;;;6.22;;
58302;SDS011;44109;52.398;7.024;2023-11-22T05:06:04;10.68;;;6.38;;
58302;SDS011;44109;52.398;7.024;2023-11-22T05:08:32;10.77;;;6.57;;
58302;SDS011;44109;52.398;7.024;2023-11-22T05:11:00;10.57;;;6.68;;
58302;SDS011;44109;52.398;7.024;2023-11-22T05:13:28;10.50;;;6.88;;
58302;SDS011;44109;52.398;7.024;2023-11-22T05:15:57;9.38;;;6.03;;
58302;SDS011;44109;52.398;7.024;2023-11-22T05:18:26;10.00;;;5.80;;
58302;SDS011;44109;52.398;7.024;2023-11-22T05:20:54;12.15;;;7.00;;
58302;SDS011;44109;52.398;7.024;2023-11-22T05:23:21;14.68;;;8.75;;
58302;SDS011;44109;52.398;7.024;2023-11-22T05:25:48;11.52;;;6.65;;
58302;SDS011;44109;52.398;7.024;2023-11-22T05:28:16;10.73;;;7.07;;
58302;SDS011;44109;52.398;7.024;2023-11-22T05:30:44;11.40;;;6.70;;
58302;SDS011;44109;52.398;7.024;2023-11-22T05:33:13;12.70;;;7.13;;
58302;SDS011;44109;52.398;7.024;2023-11-22T05:35:40;14.20;;;7.63;;
58302;SDS011;44109;52.398;7.024;2023-11-22T05:38:07;9.55;;;5.97;;
58302;SDS011;44109;52.398;7.024;2023-11-22T05:40:36;10.38;;;6.45;;
58302;SDS011;44109;52.398;7.024;2023-11-22T05:43:04;10.65;;;6.95;;
58302;SDS011;44109;52.398;7.024;2023-11-22T05:45:34;11.60;;;7.50;;
58302;SDS011;44109;52.398;7.024;2023-11-22T05:48:01;11.10;;;7.43;;
58302;SDS011;44109;52.398;7.024;2023-11-22T05:50:31;11.18;;;7.05;;
58302;SDS011;44109;52.398;7.024;2023-11-22T05:52:58;11.63;;;6.65;;
58302;SDS011;44109;52.398;7.024;2023-11-22T05:55:25;11.68;;;6.68;;
58302;SDS011;44109;52.398;7.024;2023-11-22T05:57:53;12.93;;;7.18;;
58302;SDS011;44109;52.398;7.024;2023-11-22T06:00:21;13.25;;;7.07;;
58302;SDS011;44109;52.398;7.024;2023-11-22T06:02:48;11.77;;;7.30;;
58302;SDS011;44109;52.398;7.024;2023-11-22T06:05:15;15.35;;;7.97;;
58302;SDS011;44109;52.398;7.024;2023-11-22T06:07:44;13.73;;;7.80;;
58302;SDS011;44109;52.398;7.024;2023-11-22T06:10:11;12.20;;;7.65;;
58302;SDS011;44109;52.398;7.024;2023-11-22T06:12:40;12.88;;;7.50;;
58302;SDS011;44109;52.398;7.024;2023-11-22T06:15:08;12.07;;;7.47;;
58302;SDS011;44109;52.398;7.024;2023-11-22T06:17:36;14.50;;;7.43;;
58302;SDS011;44109;52.398;7.024;2023-11-22T06:20:03;41.03;;;11.07;;
58302;SDS011;44109;52.398;7.024;2023-11-22T06:22:32;25.17;;;9.15;;
58302;SDS011;44109;52.398;7.024;2023-11-22T06:25:01;38.55;;;11.25;;
58302;SDS011;44109;52.398;7.024;2023-11-22T06:27:28;17.85;;;8.93;;
58302;SDS011;44109;52.398;7.024;2023-11-22T06:29:56;36.67;;;11.60;;
58302;SDS011;44109;52.398;7.024;2023-11-22T06:32:23;18.40;;;8.50;;
58302;SDS011;44109;52.398;7.024;2023-11-22T06:34:51;15.82;;;8.13;;
58302;SDS011;44109;52.398;7.024;2023-11-22T06:37:18;17.58;;;8.05;;
58302;SDS011;44109;52.398;7.024;2023-11-22T06:39:46;20.40;;;8.30;;
58302;SDS011;44109;52.398;7.024;2023-11-22T06:42:15;9.30;;;6.40;;
58302;SDS011;44109;52.398;7.024;2023-11-22T06:44:42;12.18;;;7.15;;
58302;SDS011;44109;52.398;7.024;2023-11-22T06:47:13;10.88;;;6.45;;
58302;SDS011;44109;52.398;7.024;2023-11-22T06:49:41;10.00;;;6.88;;
58302;SDS011;44109;52.398;7.024;2023-11-22T06:52:09;10.70;;;6.95;;
58302;SDS011;44109;52.398;7.024;2023-11-22T06:54:37;10.43;;;6.70;;
58302;SDS011;44109;52.398;7.024;2023-11-22T06:57:04;11.02;;;6.30;;
58302;SDS011;44109;52.398;7.024;2023-11-22T06:59:33;12.32;;;7.40;;
58302;SDS011;44109;52.398;7.024;2023-11-22T07:02:00;15.77;;;7.53;;
58302;SDS011;44109;52.398;7.024;2023-11-22T07:04:27;13.52;;;7.57;;
58302;SDS011;44109;52.398;7.024;2023-11-22T07:06:55;14.18;;;7.82;;
58302;SDS011;44109;52.398;7.024;2023-11-22T07:09:22;14.18;;;7.95;;
58302;SDS011;44109;52.398;7.024;2023-11-22T07:11:50;20.90;;;9.25;;
58302;SDS011;44109;52.398;7.024;2023-11-22T07:14:18;12.55;;;7.53;;
58302;SDS011;44109;52.398;7.024;2023-11-22T07:16:47;16.65;;;7.95;;
58302;SDS011;44109;52.398;7.024;2023-11-22T07:19:14;18.30;;;9.23;;
58302;SDS011;44109;52.398;7.024;2023-11-22T07:21:42;24.65;;;10.45;;
58302;SDS011;44109;52.398;7.024;2023-11-22T07:24:09;14.07;;;9.00;;
58302;SDS011;44109;52.398;7.024;2023-11-22T07:26:40;16.05;;;9.40;;
58302;SDS011;44109;52.398;7.024;2023-11-22T07:29:08;12.98;;;8.57;;
58302;SDS011;44109;52.398;7.024;2023-11-22T07:31:35;14.60;;;8.70;;
58302;SDS011;44109;52.398;7.024;2023-11-22T07:34:04;15.07;;;8.45;;
58302;SDS011;44109;52.398;7.024;2023-11-22T07:36:31;15.05;;;8.95;;
58302;SDS011;44109;52.398;7.024;2023-11-22T07:38:59;15.80;;;8.82;;
58302;SDS011;44109;52.398;7.024;2023-11-22T07:41:28;12.65;;;8.32;;
58302;SDS011;44109;52.398;7.024;2023-11-22T07:43:57;10.77;;;7.43;;
58302;SDS011;44109;52.398;7.024;2023-11-22T07:46:24;10.27;;;7.03;;
58302;SDS011;44109;52.398;7.024;2023-11-22T07:48:53;17.67;;;8.57;;
58302;SDS011;44109;52.398;7.024;2023-11-22T07:51:22;10.55;;;7.47;;
58302;SDS011;44109;52.398;7.024;2023-11-22T07:53:50;12.68;;;7.78;;
58302;SDS011;44109;52.398;7.024;2023-11-22T07:56:18;11.93;;;7.15;;
58302;SDS011;44109;52.398;7.024;2023-11-22T07:58:46;9.80;;;6.90;;
58302;SDS011;44109;52.398;7.024;2023-11-22T08:01:13;8.75;;;6.00;;
58302;SDS011;44109;52.398;7.024;2023-11-22T08:03:40;10.65;;;6.57;;
58302;SDS011;44109;52.398;7.024;2023-11-22T08:06:11;8.57;;;6.30;;
58302;SDS011;44109;52.398;7.024;2023-11-22T08:08:40;9.45;;;6.18;;
58302;SDS011;44109;52.398;7.024;2023-11-22T08:11:07;9.93;;;7.03;;
58302;SDS011;44109;52.398;7.024;2023-11-22T08:13:40;9.45;;;5.95;;
58302;SDS011;44109;52.398;7.024;2023-11-22T08:16:10;9.85;;;7.03;;
58302;SDS011;44109;52.398;7.024;2023-11-22T08:18:39;9.90;;;7.00;;
58302;SDS011;44109;52.398;7.024;2023-11-22T08:21:08;9.25;;;7.18;;
58302;SDS011;44109;52.398;7.024;2023-11-22T08:23:35;10.23;;;7.82;;
58302;SDS011;44109;52.398;7.024;2023-11-22T08:26:05;10.25;;;8.05;;
58302;SDS011;44109;52.398;7.024;2023-11-22T08:28:34;16.27;;;12.57;;
58302;SDS011;44109;52.398;7.024;2023-11-22T08:31:02;17.88;;;12.18;;
58302;SDS011;44109;52.398;7.024;2023-11-22T08:33:29;16.70;;;12.10;;
58302;SDS011;44109;52.398;7.024;2023-11-22T08:35:57;16.33;;;11.45;;
58302;SDS011;44109;52.398;7.024;2023-11-22T08:38:26;13.38;;;9.63;;
58302;SDS011;44109;52.398;7.024;2023-11-22T08:40:53;11.90;;;8.55;;
58302;SDS011;44109;52.398;7.024;2023-11-22T08:43:23;11.35;;;7.90;;
58302;SDS011;44109;52.398;7.024;2023-11-22T08:45:51;9.73;;;7.50;;
58302;SDS011;44109;52.398;7.024;2023-11-22T08:48:18;9.23;;;7.43;;
58302;SDS011;44109;52.398;7.024;2023-11-22T08:50:46;9.63;;;6.97;;
58302;SDS011;44109;52.398;7.024;2023-11-22T08:53:14;9.30;;;6.95;;
58302;SDS011;44109;52.398;7.024;2023-11-22T08:55:43;10.77;;;6.80;;
58302;SDS011;44109;52.398;7.024;2023-11-22T08:58:11;10.68;;;8.00;;
58302;SDS011;44109;52.398;7.024;2023-11-22T09:00:39;12.43;;;8.70;;
58302;SDS011;44109;52.398;7.024;2023-11-22T09:03:07;9.38;;;7.35;;
58302;SDS011;44109;52.398;7.024;2023-11-22T09:05:36;10.70;;;8.63;;
58302;SDS011;44109;52.398;7.024;2023-11-22T09:08:04;10.57;;;8.02;;
58302;SDS011;44109;52.398;7.024;2023-11-22T09:10:31;10.02;;;7.43;;
58302;SDS011;44109;52.398;7.024;2023-11-22T09:12:58;10.30;;;7.85;;
58302;SDS011;44109;52.398;7.024;2023-11-22T09:15:26;10.88;;;8.00;;
58302;SDS011;44109;52.398;7.024;2023-11-22T09:17:56;11.65;;;8.00;;
58302;SDS011;44109;52.398;7.024;2023-11-22T09:20:24;10.77;;;7.72;;
58302;SDS011;44109;52.398;7.024;2023-11-22T09:22:51;9.68;;;6.95;;
58302;SDS011;44109;52.398;7.024;2023-11-22T09:25:21;8.45;;;6.53;;
58302;SDS011;44109;52.398;7.024;2023-11-22T09:27:51;8.95;;;7.63;;
58302;SDS011;44109;52.398;7.024;2023-11-22T09:30:21;9.70;;;7.80;;
58302;SDS011;44109;52.398;7.024;2023-11-22T09:33:02;9.93;;;7.38;;
58302;SDS011;44109;52.398;7.024;2023-11-22T09:35:32;11.95;;;7.60;;
58302;SDS011;44109;52.398;7.024;2023-11-22T09:38:01;12.80;;;9.05;;
58302;SDS011;44109;52.398;7.024;2023-11-22T09:40:29;11.60;;;8.00;;
58302;SDS011;44109;52.398;7.024;2023-11-22T09:42:58;10.48;;;8.05;;
58302;SDS011;44109;52.398;7.024;2023-11-22T09:45:28;10.57;;;7.78;;
58302;SDS011;44109;52.398;7.024;2023-11-22T09:47:56;14.02;;;8.90;;
58302;SDS011;44109;52.398;7.024;2023-11-22T09:50:33;11.30;;;8.18;;
58302;SDS011;44109;52.398;7.024;2023-11-22T09:53:10;10.85;;;8.00;;
58302;SDS011;44109;52.398;7.024;2023-11-22T09:58:11;11.25;;;7.43;;
58302;SDS011;44109;52.398;7.024;2023-11-22T10:00:40;12.18;;;8.82;;
58302;SDS011;44109;52.398;7.024;2023-11-22T10:03:09;12.27;;;9.18;;
58302;SDS011;44109;52.398;7.024;2023-11-22T10:05:40;12.15;;;8.85;;
58302;SDS011;44109;52.398;7.024;2023-11-22T10:08:09;12.65;;;8.85;;
58302;SDS011;44109;52.398;7.024;2023-11-22T10:10:36;12.77;;;9.07;;
58302;SDS011;44109;52.398;7.024;2023-11-22T10:13:05;14.25;;;9.05;;
58302;SDS011;44109;52.398;7.024;2023-11-22T10:15:33;13.40;;;8.80;;
58302;SDS011;44109;52.398;7.024;2023-11-22T10:18:00;17.27;;;10.27;;
58302;SDS011;44109;52.398;7.024;2023-11-22T10:20:35;13.60;;;9.55;;
58302;SDS011;44109;52.398;7.024;2023-11-22T10:23:08;13.35;;;9.43;;
58302;SDS011;44109;52.398;7.024;2023-11-22T10:25:37;12.90;;;9.27;;
58302;SDS011;44109;52.398;7.024;2023-11-22T10:28:10;13.98;;;9.77;;
58302;SDS011;44109;52.398;7.024;2023-11-22T10:30:38;14.38;;;9.60;;
58302;SDS011;44109;52.398;7.024;2023-11-22T10:33:07;15.05;;;9.00;;
58302;SDS011;44109;52.398;7.024;2023-11-22T10:35:39;13.23;;;9.27;;
58302;SDS011;44109;52.398;7.024;2023-11-22T10:38:11;12.77;;;8.63;;
58302;SDS011;44109;52.398;7.024;2023-11-22T10:40:41;11.15;;;8.18;;
58302;SDS011;44109;52.398;7.024;2023-11-22T10:43:10;11.60;;;8.65;;
58302;SDS011;44109;52.398;7.024;2023-11-22T10:45:39;14.13;;;9.13;;
58302;SDS011;44109;52.398;7.024;2023-11-22T10:48:11;11.55;;;7.93;;
58302;SDS011;44109;52.398;7.024;2023-11-22T10:50:42;11.52;;;8.15;;
58302;SDS011;44109;52.398;7.024;2023-11-22T10:53:12;10.27;;;7.65;;
58302;SDS011;44109;52.398;7.024;2023-11-22T10:55:44;9.33;;;6.97;;
58302;SDS011;44109;52.398;7.024;2023-11-22T10:58:13;10.20;;;7.68;;
58302;SDS011;44109;52.398;7.024;2023-11-22T11:00:42;13.02;;;8.93;;
58302;SDS011;44109;52.398;7.024;2023-11-22T11:03:13;10.82;;;7.65;;
58302;SDS011;44109;52.398;7.024;2023-11-22T11:05:46;9.32;;;7.43;;
58302;SDS011;44109;52.398;7.024;2023-11-22T11:08:25;11.98;;;8.43;;
58302;SDS011;44109;52.398;7.024;2023-11-22T11:10:55;10.75;;;7.80;;
58302;SDS011;44109;52.398;7.024;2023-11-22T11:13:25;10.55;;;7.28;;
58302;SDS011;44109;52.398;7.024;2023-11-22T11:15:54;11.88;;;7.78;;
58302;SDS011;44109;52.398;7.024;2023-11-22T11:18:22;9.45;;;7.43;;
58302;SDS011;44109;52.398;7.024;2023-11-22T11:20:55;11.43;;;7.90;;
58302;SDS011;44109;52.398;7.024;2023-11-22T11:23:26;8.80;;;6.50;;
58302;SDS011;44109;52.398;7.024;2023-11-22T11:25:54;9.88;;;6.95;;
58302;SDS011;44109;52.398;7.024;2023-11-22T11:28:23;9.73;;;6.95;;
58302;SDS011;44109;52.398;7.024;2023-11-22T11:30:52;12.02;;;7.47;;
58302;SDS011;44109;52.398;7.024;2023-11-22T11:33:26;9.13;;;5.80;;
58302;SDS011;44109;52.398;7.024;2023-11-22T11:36:00;9.25;;;6.30;;
58302;SDS011;44109;52.398;7.024;2023-11-22T11:38:31;8.95;;;6.93;;
58302;SDS011;44109;52.398;7.024;2023-11-22T11:41:06;23.33;;;11.38;;
58302;SDS011;44109;52.398;7.024;2023-11-22T11:43:39;22.67;;;15.25;;
58302;SDS011;44109;52.398;7.024;2023-11-22T11:46:07;22.13;;;15.25;;
58302;SDS011;44109;52.398;7.024;2023-11-22T11:48:36;20.35;;;13.45;;
58302;SDS011;44109;52.398;7.024;2023-11-22T11:51:04;14.18;;;10.68;;
58302;SDS011;44109;52.398;7.024;2023-11-22T11:53:33;14.18;;;10.30;;
58302;SDS011;44109;52.398;7.024;2023-11-22T11:56:01;13.45;;;9.48;;
58302;SDS011;44109;52.398;7.024;2023-11-22T11:58:29;10.05;;;8.35;;
58302;SDS011;44109;52.398;7.024;2023-11-22T12:00:57;14.45;;;9.55;;
58302;SDS011;44109;52.398;7.024;2023-11-22T12:03:25;11.40;;;8.40;;
58302;SDS011;44109;52.398;7.024;2023-11-22T12:05:53;11.55;;;8.45;;
58302;SDS011;44109;52.398;7.024;2023-11-22T12:08:20;11.75;;;8.68;;
58302;SDS011;44109;52.398;7.024;2023-11-22T12:10:49;9.75;;;7.43;;
58302;SDS011;44109;52.398;7.024;2023-11-22T12:13:17;11.68;;;7.28;;
58302;SDS011;44109;52.398;7.024;2023-11-22T12:15:45;10.93;;;7.90;;
58302;SDS011;44109;52.398;7.024;2023-11-22T12:18:13;10.10;;;7.05;;
58302;SDS011;44109;52.398;7.024;2023-11-22T12:20:41;9.85;;;6.53;;
58302;SDS011;44109;52.398;7.024;2023-11-22T12:23:09;11.15;;;7.57;;
58302;SDS011;44109;52.398;7.024;2023-11-22T12:25:37;11.43;;;7.93;;
58302;SDS011;44109;52.398;7.024;2023-11-22T12:28:06;9.63;;;6.75;;
58302;SDS011;44109;52.398;7.024;2023-11-22T12:30:34;9.60;;;6.60;;
58302;SDS011;44109;52.398;7.024;2023-11-22T12:33:05;7.93;;;6.40;;
58302;SDS011;44109;52.398;7.024;2023-11-22T12:35:34;8.23;;;6.40;;
58302;SDS011;44109;52.398;7.024;2023-11-22T12:38:02;10.27;;;7.65;;
58302;SDS011;44109;52.398;7.024;2023-11-22T12:40:32;8.10;;;6.13;;
58302;SDS011;44109;52.398;7.024;2023-11-22T12:43:00;9.38;;;6.35;;
58302;SDS011;44109;52.398;7.024;2023-11-22T12:45:30;8.75;;;6.30;;
58302;SDS011;44109;52.398;7.024;2023-11-22T12:48:19;8.43;;;5.90;;
58302;SDS011;44109;52.398;7.024;2023-11-22T12:50:49;8.23;;;6.00;;
58302;SDS011;44109;52.398;7.024;2023-11-22T12:53:17;7.95;;;5.40;;
58302;SDS011;44109;52.398;7.024;2023-11-22T12:55:47;7.97;;;5.57;;
58302;SDS011;44109;52.398;7.024;2023-11-22T12:58:16;8.25;;;6.38;;
58302;SDS011;44109;52.398;7.024;2023-11-22T13:00:46;8.45;;;6.00;;
58302;SDS011;44109;52.398;7.024;2023-11-22T13:03:15;8.15;;;6.07;;
58302;SDS011;44109;52.398;7.024;2023-11-22T13:05:43;8.63;;;6.25;;
58302;SDS011;44109;52.398;7.024;2023-11-22T13:08:12;8.65;;;6.25;;
58302;SDS011;44109;52.398;7.024;2023-11-22T13:10:40;9.15;;;6.40;;
58302;SDS011;44109;52.398;7.024;2023-11-22T13:13:12;8.88;;;6.35;;
58302;SDS011;44109;52.398;7.024;2023-11-22T13:15:39;10.30;;;6.82;;
58302;SDS011;44109;52.398;7.024;2023-11-22T13:18:09;5.82;;;5.22;;
58302;SDS011;44109;52.398;7.024;2023-11-22T13:20:36;10.10;;;5.63;;
58302;SDS011;44109;52.398;7.024;2023-11-22T13:23:06;9.43;;;5.60;;
58302;SDS011;44109;52.398;7.024;2023-11-22T13:25:34;6.30;;;4.93;;
58302;SDS011;44109;52.398;7.024;2023-11-22T13:28:02;6.93;;;5.13;;
58302;SDS011;44109;52.398;7.024;2023-11-22T13:30:30;8.07;;;5.47;;
58302;SDS011;44109;52.398;7.024;2023-11-22T13:32:58;6.55;;;4.88;;
58302;SDS011;44109;52.398;7.024;2023-11-22T13:35:27;7.55;;;5.25;;
58302;SDS011;44109;52.398;7.024;2023-11-22T13:37:56;7.50;;;4.70;;
58302;SDS011;44109;52.398;7.024;2023-11-22T13:40:27;6.95;;;4.15;;
58302;SDS011;44109;52.398;7.024;2023-11-22T13:42:57;6.75;;;4.75;;
58302;SDS011;44109;52.398;7.024;2023-11-22T13:45:25;6.97;;;5.20;;
58302;SDS011;44109;52.398;7.024;2023-11-22T13:47:53;6.93;;;4.90;;
58302;SDS011;44109;52.398;7.024;2023-11-22T13:50:26;6.32;;;4.50;;
58302;SDS011;44109;52.398;7.024;2023-11-22T13:52:54;8.48;;;5.35;;
58302;SDS011;44109;52.398;7.024;2023-11-22T13:55:24;6.25;;;4.47;;
58302;SDS011;44109;52.398;7.024;2023-11-22T13:57:53;6.35;;;4.18;;
58302;SDS011;44109;52.398;7.024;2023-11-22T14:00:24;6.50;;;4.28;;
58302;SDS011;44109;52.398;7.024;2023-11-22T14:02:55;8.18;;;5.10;;
58302;SDS011;44109;52.398;7.024;2023-11-22T14:05:31;8.40;;;4.32;;
58302;SDS011;44109;52.398;7.024;2023-11-22T14:08:02;7.57;;;5.32;;
58302;SDS011;44109;52.398;7.024;2023-11-22T14:10:30;6.22;;;4.78;;
58302;SDS011;44109;52.398;7.024;2023-11-22T14:12:57;6.03;;;4.43;;
58302;SDS011;44109;52.398;7.024;2023-11-22T14:15:26;7.85;;;4.70;;
58302;SDS011;44109;52.398;7.024;2023-11-22T14:17:55;7.85;;;4.70;;
58302;SDS011;44109;52.398;7.024;2023-11-22T14:20:23;6.75;;;4.47;;
58302;SDS011;44109;52.398;7.024;2023-11-22T14:22:52;6.65;;;4.35;;
58302;SDS011;44109;52.398;7.024;2023-11-22T14:25:19;7.28;;;4.32;;
58302;SDS011;44109;52.398;7.024;2023-11-22T14:27:47;7.50;;;4.60;;
58302;SDS011;44109;52.398;7.024;2023-11-22T14:30:18;5.35;;;4.28;;
58302;SDS011;44109;52.398;7.024;2023-11-22T14:32:46;7.45;;;4.95;;
58302;SDS011;44109;52.398;7.024;2023-11-22T14:35:16;5.53;;;4.22;;
58302;SDS011;44109;52.398;7.024;2023-11-22T14:37:44;6.40;;;4.40;;
58302;SDS011;44109;52.398;7.024;2023-11-22T14:40:13;6.50;;;4.53;;
58302;SDS011;44109;52.398;7.024;2023-11-22T14:42:41;6.38;;;4.53;;
58302;SDS011;44109;52.398;7.024;2023-11-22T14:45:10;5.78;;;4.60;;
58302;SDS011;44109;52.398;7.024;2023-11-22T14:47:38;7.35;;;5.25;;
58302;SDS011;44109;52.398;7.024;2023-11-22T14:50:06;6.65;;;4.57;;